sensor_id;sensor_type;location;lat;lon;timestamp;P1;durP1;ratioP1;P2;durP2;ratioP2
59824;SDS011;45703;50.898;6.054;2024-01-10T00:00:08;14.43;;;5.90;;
59824;SDS011;45703;50.898;6.054;2024-01-10T00:02:34;13.80;;;5.43;;
59824;SDS011;45703;50.898;6.054;2024-01-10T00:04:59;11.25;;;5.32;;
59824;SDS011;45703;50.898;6.054;2024-01-10T00:07:24;11.68;;;5.70;;
59824;SDS011;45703;50.898;6.054;2024-01-10T00:09:50;13.82;;;5.85;;
59824;SDS011;45703;50.898;6.054;2024-01-10T00:12:15;13.35;;;6.25;;
59824;SDS011;45703;50.898;6.054;2024-01-10T00:14:41;12.57;;;6.00;;
59824;SDS011;45703;50.898;6.054;2024-01-10T00:17:06;14.80;;;6.05;;
59824;SDS011;45703;50.898;6.054;2024-01-10T00:19:32;16.70;;;6.43;;
59824;SDS011;45703;50.898;6.054;2024-01-10T00:21:57;13.50;;;5.82;;
59824;SDS011;45703;50.898;6.054;2024-01-10T00:24:23;15.05;;;6.05;;
59824;SDS011;45703;50.898;6.054;2024-01-10T00:26:48;12.48;;;5.32;;
59824;SDS011;45703;50.898;6.054;2024-01-10T00:29:14;12.20;;;6.00;;
59824;SDS011;45703;50.898;6.054;2024-01-10T00:31:39;12.60;;;5.20;;
59824;SDS011;45703;50.898;6.054;2024-01-10T00:34:05;12.48;;;5.93;;
59824;SDS011;45703;50.898;6.054;2024-01-10T00:36:30;13.93;;;5.82;;
59824;SDS011;45703;50.898;6.054;2024-01-10T00:38:56;16.55;;;6.93;;
59824;SDS011;45703;50.898;6.054;2024-01-10T00:41:21;14.85;;;6.22;;
59824;SDS011;45703;50.898;6.054;2024-01-10T00:43:46;14.27;;;5.95;;
59824;SDS011;45703;50.898;6.054;2024-01-10T00:46:12;12.32;;;5.60;;
59824;SDS011;45703;50.898;6.054;2024-01-10T00:48:37;10.55;;;5.60;;
59824;SDS011;45703;50.898;6.054;2024-01-10T00:51:02;13.52;;;5.45;;
59824;SDS011;45703;50.898;6.054;2024-01-10T00:53:33;11.82;;;5.90;;
59824;SDS011;45703;50.898;6.054;2024-01-10T00:55:59;14.35;;;5.93;;
59824;SDS011;45703;50.898;6.054;2024-01-10T00:58:24;9.05;;;4.72;;
59824;SDS011;45703;50.898;6.054;2024-01-10T01:00:50;11.40;;;4.85;;
59824;SDS011;45703;50.898;6.054;2024-01-10T01:03:15;12.30;;;4.97;;
59824;SDS011;45703;50.898;6.054;2024-01-10T01:05:40;14.55;;;5.53;;
59824;SDS011;45703;50.898;6.054;2024-01-10T01:08:06;14.32;;;5.93;;
59824;SDS011;45703;50.898;6.054;2024-01-10T01:10:31;13.05;;;5.38;;
59824;SDS011;45703;50.898;6.054;2024-01-10T01:12:57;12.23;;;5.45;;
59824;SDS011;45703;50.898;6.054;2024-01-10T01:15:22;13.15;;;5.65;;
59824;SDS011;45703;50.898;6.054;2024-01-10T01:17:48;10.98;;;5.20;;
59824;SDS011;45703;50.898;6.054;2024-01-10T01:20:13;12.88;;;6.45;;
59824;SDS011;45703;50.898;6.054;2024-01-10T01:22:39;11.40;;;5.70;;
59824;SDS011;45703;50.898;6.054;2024-01-10T01:25:04;13.32;;;5.60;;
59824;SDS011;45703;50.898;6.054;2024-01-10T01:27:30;13.07;;;5.95;;
59824;SDS011;45703;50.898;6.054;2024-01-10T01:29:55;12.38;;;4.80;;
59824;SDS011;45703;50.898;6.054;2024-01-10T01:32:23;12.80;;;5.80;;
59824;SDS011;45703;50.898;6.054;2024-01-10T01:34:48;16.20;;;6.15;;
59824;SDS011;45703;50.898;6.054;2024-01-10T01:37:14;12.18;;;5.18;;
59824;SDS011;45703;50.898;6.054;2024-01-10T01:39:40;13.57;;;5.90;;
59824;SDS011;45703;50.898;6.054;2024-01-10T01:42:05;14.68;;;6.00;;
59824;SDS011;45703;50.898;6.054;2024-01-10T01:44:31;15.60;;;6.03;;
59824;SDS011;45703;50.898;6.054;2024-01-10T01:46:57;12.38;;;6.10;;
59824;SDS011;45703;50.898;6.054;2024-01-10T01:49:23;11.55;;;5.13;;
59824;SDS011;45703;50.898;6.054;2024-01-10T01:51:50;13.60;;;5.82;;
59824;SDS011;45703;50.898;6.054;2024-01-10T01:54:16;15.93;;;7.10;;
59824;SDS011;45703;50.898;6.054;2024-01-10T01:56:42;11.40;;;6.13;;
59824;SDS011;45703;50.898;6.054;2024-01-10T01:59:09;12.98;;;5.78;;
59824;SDS011;45703;50.898;6.054;2024-01-10T02:01:36;13.68;;;6.10;;
59824;SDS011;45703;50.898;6.054;2024-01-10T02:04:02;13.07;;;5.88;;
59824;SDS011;45703;50.898;6.054;2024-01-10T02:06:28;15.95;;;6.05;;
59824;SDS011;45703;50.898;6.054;2024-01-10T02:08:54;15.57;;;6.43;;
59824;SDS011;45703;50.898;6.054;2024-01-10T02:11:21;15.18;;;6.32;;
59824;SDS011;45703;50.898;6.054;2024-01-10T02:13:47;13.30;;;6.07;;
59824;SDS011;45703;50.898;6.054;2024-01-10T02:16:12;15.25;;;7.05;;
59824;SDS011;45703;50.898;6.054;2024-01-10T02:18:38;12.02;;;5.90;;
59824;SDS011;45703;50.898;6.054;2024-01-10T02:21:03;13.43;;;6.13;;
59824;SDS011;45703;50.898;6.054;2024-01-10T02:23:29;16.33;;;5.53;;
59824;SDS011;45703;50.898;6.054;2024-01-10T02:25:54;15.50;;;6.20;;
59824;SDS011;45703;50.898;6.054;2024-01-10T02:28:19;15.35;;;7.03;;
59824;SDS011;45703;50.898;6.054;2024-01-10T02:30:45;15.68;;;6.10;;
59824;SDS011;45703;50.898;6.054;2024-01-10T02:33:12;15.77;;;5.95;;
59824;SDS011;45703;50.898;6.054;2024-01-10T02:35:37;13.32;;;6.00;;
59824;SDS011;45703;50.898;6.054;2024-01-10T02:38:04;13.82;;;6.38;;
59824;SDS011;45703;50.898;6.054;2024-01-10T02:40:29;16.27;;;6.07;;
59824;SDS011;45703;50.898;6.054;2024-01-10T02:42:54;14.10;;;5.68;;
59824;SDS011;45703;50.898;6.054;2024-01-10T02:45:20;14.23;;;6.20;;
59824;SDS011;45703;50.898;6.054;2024-01-10T02:47:45;13.10;;;5.90;;
59824;SDS011;45703;50.898;6.054;2024-01-10T02:50:11;16.25;;;6.15;;
59824;SDS011;45703;50.898;6.054;2024-01-10T02:52:36;15.00;;;6.78;;
59824;SDS011;45703;50.898;6.054;2024-01-10T02:55:02;13.40;;;6.10;;
59824;SDS011;45703;50.898;6.054;2024-01-10T02:57:27;14.15;;;6.07;;
59824;SDS011;45703;50.898;6.054;2024-01-10T02:59:52;11.88;;;5.82;;
59824;SDS011;45703;50.898;6.054;2024-01-10T03:02:18;13.05;;;6.03;;
59824;SDS011;45703;50.898;6.054;2024-01-10T03:04:43;12.98;;;6.45;;
59824;SDS011;45703;50.898;6.054;2024-01-10T03:07:09;12.63;;;5.80;;
59824;SDS011;45703;50.898;6.054;2024-01-10T03:09:35;14.00;;;5.88;;
59824;SDS011;45703;50.898;6.054;2024-01-10T03:12:03;10.95;;;4.97;;
59824;SDS011;45703;50.898;6.054;2024-01-10T03:14:29;15.10;;;6.70;;
59824;SDS011;45703;50.898;6.054;2024-01-10T03:16:54;11.45;;;5.75;;
59824;SDS011;45703;50.898;6.054;2024-01-10T03:19:20;12.57;;;5.60;;
59824;SDS011;45703;50.898;6.054;2024-01-10T03:21:45;14.93;;;5.70;;
59824;SDS011;45703;50.898;6.054;2024-01-10T03:24:10;11.77;;;5.07;;
59824;SDS011;45703;50.898;6.054;2024-01-10T03:26:36;13.45;;;6.38;;
59824;SDS011;45703;50.898;6.054;2024-01-10T03:29:02;12.88;;;6.30;;
59824;SDS011;45703;50.898;6.054;2024-01-10T03:31:27;12.48;;;5.55;;
59824;SDS011;45703;50.898;6.054;2024-01-10T03:33:55;12.13;;;5.90;;
59824;SDS011;45703;50.898;6.054;2024-01-10T03:36:21;13.48;;;6.18;;
59824;SDS011;45703;50.898;6.054;2024-01-10T03:38:46;15.93;;;6.00;;
59824;SDS011;45703;50.898;6.054;2024-01-10T03:41:15;14.95;;;6.00;;
59824;SDS011;45703;50.898;6.054;2024-01-10T03:43:42;13.33;;;6.50;;
59824;SDS011;45703;50.898;6.054;2024-01-10T03:46:08;12.23;;;5.70;;
59824;SDS011;45703;50.898;6.054;2024-01-10T03:48:34;13.00;;;5.63;;
59824;SDS011;45703;50.898;6.054;2024-01-10T03:50:59;14.30;;;5.55;;
59824;SDS011;45703;50.898;6.054;2024-01-10T03:53:25;13.48;;;6.18;;
59824;SDS011;45703;50.898;6.054;2024-01-10T03:55:50;15.10;;;6.00;;
59824;SDS011;45703;50.898;6.054;2024-01-10T03:58:15;15.23;;;5.85;;
59824;SDS011;45703;50.898;6.054;2024-01-10T04:00:41;13.13;;;6.03;;
59824;SDS011;45703;50.898;6.054;2024-01-10T04:03:06;13.30;;;5.90;;
59824;SDS011;45703;50.898;6.054;2024-01-10T04:05:31;13.43;;;6.35;;
59824;SDS011;45703;50.898;6.054;2024-01-10T04:07:57;12.18;;;5.43;;
59824;SDS011;45703;50.898;6.054;2024-01-10T04:10:23;12.52;;;5.78;;
59824;SDS011;45703;50.898;6.054;2024-01-10T04:12:48;13.68;;;6.05;;
59824;SDS011;45703;50.898;6.054;2024-01-10T04:15:14;11.50;;;5.47;;
59824;SDS011;45703;50.898;6.054;2024-01-10T04:17:40;12.98;;;5.93;;
59824;SDS011;45703;50.898;6.054;2024-01-10T04:20:07;15.52;;;6.75;;
59824;SDS011;45703;50.898;6.054;2024-01-10T04:22:32;14.07;;;6.15;;
59824;SDS011;45703;50.898;6.054;2024-01-10T04:24:58;14.73;;;6.88;;
59824;SDS011;45703;50.898;6.054;2024-01-10T04:27:25;13.60;;;6.20;;
59824;SDS011;45703;50.898;6.054;2024-01-10T04:29:53;10.95;;;5.40;;
59824;SDS011;45703;50.898;6.054;2024-01-10T04:32:19;11.27;;;5.47;;
59824;SDS011;45703;50.898;6.054;2024-01-10T04:34:44;13.20;;;5.95;;
59824;SDS011;45703;50.898;6.054;2024-01-10T04:37:10;14.93;;;6.30;;
59824;SDS011;45703;50.898;6.054;2024-01-10T04:39:35;14.23;;;6.72;;
59824;SDS011;45703;50.898;6.054;2024-01-10T04:42:02;14.38;;;6.45;;
59824;SDS011;45703;50.898;6.054;2024-01-10T04:44:28;16.77;;;5.38;;
59824;SDS011;45703;50.898;6.054;2024-01-10T04:46:54;13.02;;;6.03;;
59824;SDS011;45703;50.898;6.054;2024-01-10T04:49:19;11.77;;;5.55;;
59824;SDS011;45703;50.898;6.054;2024-01-10T04:51:45;16.60;;;6.25;;
59824;SDS011;45703;50.898;6.054;2024-01-10T04:54:11;16.00;;;6.32;;
59824;SDS011;45703;50.898;6.054;2024-01-10T04:56:36;14.07;;;5.85;;
59824;SDS011;45703;50.898;6.054;2024-01-10T04:59:02;13.07;;;5.60;;
59824;SDS011;45703;50.898;6.054;2024-01-10T05:01:28;13.13;;;6.22;;
59824;SDS011;45703;50.898;6.054;2024-01-10T05:03:53;13.40;;;6.30;;
59824;SDS011;45703;50.898;6.054;2024-01-10T05:06:21;16.23;;;6.65;;
59824;SDS011;45703;50.898;6.054;2024-01-10T05:08:47;14.27;;;5.97;;
59824;SDS011;45703;50.898;6.054;2024-01-10T05:11:12;14.20;;;6.45;;
59824;SDS011;45703;50.898;6.054;2024-01-10T05:13:40;11.88;;;5.50;;
59824;SDS011;45703;50.898;6.054;2024-01-10T05:16:05;16.38;;;6.68;;
59824;SDS011;45703;50.898;6.054;2024-01-10T05:18:31;13.10;;;5.80;;
59824;SDS011;45703;50.898;6.054;2024-01-10T05:20:56;13.70;;;5.75;;
59824;SDS011;45703;50.898;6.054;2024-01-10T05:23:22;14.50;;;5.80;;
59824;SDS011;45703;50.898;6.054;2024-01-10T05:25:48;14.25;;;5.93;;
59824;SDS011;45703;50.898;6.054;2024-01-10T05:28:14;11.63;;;6.07;;
59824;SDS011;45703;50.898;6.054;2024-01-10T05:30:39;12.70;;;5.97;;
59824;SDS011;45703;50.898;6.054;2024-01-10T05:33:06;13.88;;;6.55;;
59824;SDS011;45703;50.898;6.054;2024-01-10T05:35:31;14.40;;;5.65;;
59824;SDS011;45703;50.898;6.054;2024-01-10T05:37:57;15.23;;;6.03;;
59824;SDS011;45703;50.898;6.054;2024-01-10T05:40:22;17.15;;;6.68;;
59824;SDS011;45703;50.898;6.054;2024-01-10T05:42:48;16.02;;;6.43;;
59824;SDS011;45703;50.898;6.054;2024-01-10T05:45:14;13.60;;;5.53;;
59824;SDS011;45703;50.898;6.054;2024-01-10T05:47:43;13.05;;;5.93;;
59824;SDS011;45703;50.898;6.054;2024-01-10T05:50:08;12.43;;;5.75;;
59824;SDS011;45703;50.898;6.054;2024-01-10T05:52:34;16.02;;;6.15;;
59824;SDS011;45703;50.898;6.054;2024-01-10T05:54:59;10.55;;;4.97;;
59824;SDS011;45703;50.898;6.054;2024-01-10T05:57:27;12.68;;;6.28;;
59824;SDS011;45703;50.898;6.054;2024-01-10T05:59:52;14.13;;;5.70;;
59824;SDS011;45703;50.898;6.054;2024-01-10T06:02:21;13.27;;;5.13;;
59824;SDS011;45703;50.898;6.054;2024-01-10T06:04:47;15.93;;;5.72;;
59824;SDS011;45703;50.898;6.054;2024-01-10T06:07:12;14.45;;;5.95;;
59824;SDS011;45703;50.898;6.054;2024-01-10T06:09:38;12.65;;;5.65;;
59824;SDS011;45703;50.898;6.054;2024-01-10T06:12:04;12.70;;;6.07;;
59824;SDS011;45703;50.898;6.054;2024-01-10T06:14:30;14.32;;;6.32;;
59824;SDS011;45703;50.898;6.054;2024-01-10T06:16:56;12.98;;;5.82;;
59824;SDS011;45703;50.898;6.054;2024-01-10T06:19:24;12.90;;;5.90;;
59824;SDS011;45703;50.898;6.054;2024-01-10T06:21:50;13.50;;;5.80;;
59824;SDS011;45703;50.898;6.054;2024-01-10T06:24:17;15.65;;;6.60;;
59824;SDS011;45703;50.898;6.054;2024-01-10T06:26:42;13.10;;;6.65;;
59824;SDS011;45703;50.898;6.054;2024-01-10T06:29:08;11.48;;;6.07;;
59824;SDS011;45703;50.898;6.054;2024-01-10T06:31:33;11.85;;;5.32;;
59824;SDS011;45703;50.898;6.054;2024-01-10T06:33:58;17.13;;;6.28;;
59824;SDS011;45703;50.898;6.054;2024-01-10T06:36:24;16.70;;;6.50;;
59824;SDS011;45703;50.898;6.054;2024-01-10T06:38:50;12.77;;;5.95;;
59824;SDS011;45703;50.898;6.054;2024-01-10T06:41:15;14.85;;;5.85;;
59824;SDS011;45703;50.898;6.054;2024-01-10T06:43:40;13.32;;;6.10;;
59824;SDS011;45703;50.898;6.054;2024-01-10T06:46:06;17.02;;;6.68;;
59824;SDS011;45703;50.898;6.054;2024-01-10T06:48:32;15.48;;;5.45;;
59824;SDS011;45703;50.898;6.054;2024-01-10T06:50:57;14.95;;;5.90;;
59824;SDS011;45703;50.898;6.054;2024-01-10T06:53:23;12.82;;;5.30;;
59824;SDS011;45703;50.898;6.054;2024-01-10T06:55:49;14.82;;;6.57;;
59824;SDS011;45703;50.898;6.054;2024-01-10T06:58:14;11.35;;;5.53;;
59824;SDS011;45703;50.898;6.054;2024-01-10T07:00:40;13.02;;;6.05;;
59824;SDS011;45703;50.898;6.054;2024-01-10T07:03:05;15.18;;;6.65;;
59824;SDS011;45703;50.898;6.054;2024-01-10T07:05:30;15.40;;;6.63;;
59824;SDS011;45703;50.898;6.054;2024-01-10T07:07:59;13.82;;;6.13;;
59824;SDS011;45703;50.898;6.054;2024-01-10T07:10:28;14.25;;;5.10;;
59824;SDS011;45703;50.898;6.054;2024-01-10T07:12:56;15.48;;;6.43;;
59824;SDS011;45703;50.898;6.054;2024-01-10T07:15:22;14.60;;;5.63;;
59824;SDS011;45703;50.898;6.054;2024-01-10T07:17:47;15.18;;;5.95;;
59824;SDS011;45703;50.898;6.054;2024-01-10T07:20:13;16.80;;;6.57;;
59824;SDS011;45703;50.898;6.054;2024-01-10T07:22:39;14.35;;;5.85;;
59824;SDS011;45703;50.898;6.054;2024-01-10T07:25:07;13.77;;;5.47;;
59824;SDS011;45703;50.898;6.054;2024-01-10T07:27:34;15.23;;;5.85;;
59824;SDS011;45703;50.898;6.054;2024-01-10T07:29:59;11.38;;;5.60;;
59824;SDS011;45703;50.898;6.054;2024-01-10T07:32:25;12.98;;;5.47;;
59824;SDS011;45703;50.898;6.054;2024-01-10T07:34:50;11.45;;;5.43;;
59824;SDS011;45703;50.898;6.054;2024-01-10T07:37:16;13.07;;;5.45;;
59824;SDS011;45703;50.898;6.054;2024-01-10T07:39:46;14.27;;;5.50;;
59824;SDS011;45703;50.898;6.054;2024-01-10T07:42:11;11.50;;;4.93;;
59824;SDS011;45703;50.898;6.054;2024-01-10T07:44:37;15.23;;;6.18;;
59824;SDS011;45703;50.898;6.054;2024-01-10T07:47:02;11.18;;;5.10;;
59824;SDS011;45703;50.898;6.054;2024-01-10T07:49:28;11.90;;;5.47;;
59824;SDS011;45703;50.898;6.054;2024-01-10T07:51:55;11.93;;;5.22;;
59824;SDS011;45703;50.898;6.054;2024-01-10T07:54:20;14.70;;;5.80;;
59824;SDS011;45703;50.898;6.054;2024-01-10T07:56:46;14.15;;;5.57;;
59824;SDS011;45703;50.898;6.054;2024-01-10T07:59:11;13.07;;;5.10;;
59824;SDS011;45703;50.898;6.054;2024-01-10T08:01:39;13.65;;;5.25;;
59824;SDS011;45703;50.898;6.054;2024-01-10T08:04:05;15.23;;;5.53;;
59824;SDS011;45703;50.898;6.054;2024-01-10T08:06:30;13.80;;;5.10;;
59824;SDS011;45703;50.898;6.054;2024-01-10T08:08:55;16.33;;;6.63;;
59824;SDS011;45703;50.898;6.054;2024-01-10T08:11:21;12.50;;;5.75;;
59824;SDS011;45703;50.898;6.054;2024-01-10T08:13:46;12.77;;;6.15;;
59824;SDS011;45703;50.898;6.054;2024-01-10T08:16:12;12.95;;;5.88;;
59824;SDS011;45703;50.898;6.054;2024-01-10T08:18:37;12.57;;;6.05;;
59824;SDS011;45703;50.898;6.054;2024-01-10T08:21:02;14.30;;;5.95;;
59824;SDS011;45703;50.898;6.054;2024-01-10T08:23:29;13.65;;;5.47;;
59824;SDS011;45703;50.898;6.054;2024-01-10T08:25:54;14.32;;;6.10;;
59824;SDS011;45703;50.898;6.054;2024-01-10T08:28:20;11.98;;;5.57;;
59824;SDS011;45703;50.898;6.054;2024-01-10T08:30:46;13.20;;;5.72;;
59824;SDS011;45703;50.898;6.054;2024-01-10T08:33:11;14.63;;;5.90;;
59824;SDS011;45703;50.898;6.054;2024-01-10T08:35:36;14.60;;;6.80;;
59824;SDS011;45703;50.898;6.054;2024-01-10T08:38:04;12.13;;;5.85;;
59824;SDS011;45703;50.898;6.054;2024-01-10T08:40:32;9.48;;;5.03;;
59824;SDS011;45703;50.898;6.054;2024-01-10T08:42:57;12.45;;;6.07;;
59824;SDS011;45703;50.898;6.054;2024-01-10T08:45:22;11.10;;;5.63;;
59824;SDS011;45703;50.898;6.054;2024-01-10T08:47:48;12.65;;;6.07;;
59824;SDS011;45703;50.898;6.054;2024-01-10T08:50:14;15.25;;;7.03;;
59824;SDS011;45703;50.898;6.054;2024-01-10T08:52:39;13.52;;;6.75;;
59824;SDS011;45703;50.898;6.054;2024-01-10T08:55:05;14.95;;;6.55;;
59824;SDS011;45703;50.898;6.054;2024-01-10T08:57:31;15.15;;;7.40;;
59824;SDS011;45703;50.898;6.054;2024-01-10T08:59:56;14.07;;;5.80;;
59824;SDS011;45703;50.898;6.054;2024-01-10T09:02:22;18.48;;;7.40;;
59824;SDS011;45703;50.898;6.054;2024-01-10T09:04:48;17.98;;;7.40;;
59824;SDS011;45703;50.898;6.054;2024-01-10T09:07:14;15.65;;;7.40;;
59824;SDS011;45703;50.898;6.054;2024-01-10T09:09:40;19.98;;;8.20;;
59824;SDS011;45703;50.898;6.054;2024-01-10T09:12:05;17.90;;;8.13;;
59824;SDS011;45703;50.898;6.054;2024-01-10T09:14:31;14.55;;;7.75;;
59824;SDS011;45703;50.898;6.054;2024-01-10T09:16:56;20.17;;;7.72;;
59824;SDS011;45703;50.898;6.054;2024-01-10T09:19:23;17.33;;;7.32;;
59824;SDS011;45703;50.898;6.054;2024-01-10T09:21:49;18.30;;;8.20;;
59824;SDS011;45703;50.898;6.054;2024-01-10T09:24:15;15.90;;;7.05;;
59824;SDS011;45703;50.898;6.054;2024-01-10T09:26:40;15.43;;;7.85;;
59824;SDS011;45703;50.898;6.054;2024-01-10T09:29:06;19.83;;;8.52;;
59824;SDS011;45703;50.898;6.054;2024-01-10T09:31:32;17.13;;;8.13;;
59824;SDS011;45703;50.898;6.054;2024-01-10T09:33:57;18.38;;;8.60;;
59824;SDS011;45703;50.898;6.054;2024-01-10T09:36:23;18.20;;;9.10;;
59824;SDS011;45703;50.898;6.054;2024-01-10T09:38:48;16.30;;;7.65;;
59824;SDS011;45703;50.898;6.054;2024-01-10T09:41:13;16.65;;;7.75;;
59824;SDS011;45703;50.898;6.054;2024-01-10T09:43:40;17.17;;;8.25;;
59824;SDS011;45703;50.898;6.054;2024-01-10T09:46:06;15.68;;;8.38;;
59824;SDS011;45703;50.898;6.054;2024-01-10T09:48:32;14.10;;;7.55;;
59824;SDS011;45703;50.898;6.054;2024-01-10T09:50:58;16.85;;;8.73;;
59824;SDS011;45703;50.898;6.054;2024-01-10T09:53:24;16.98;;;8.25;;
59824;SDS011;45703;50.898;6.054;2024-01-10T09:55:55;19.92;;;9.10;;
59824;SDS011;45703;50.898;6.054;2024-01-10T09:58:22;16.30;;;8.15;;
59824;SDS011;45703;50.898;6.054;2024-01-10T10:00:50;17.13;;;8.85;;
59824;SDS011;45703;50.898;6.054;2024-01-10T10:03:15;18.10;;;8.90;;
59824;SDS011;45703;50.898;6.054;2024-01-10T10:05:42;18.35;;;9.48;;
59824;SDS011;45703;50.898;6.054;2024-01-10T10:08:10;16.48;;;7.50;;
59824;SDS011;45703;50.898;6.054;2024-01-10T10:10:37;20.42;;;8.68;;
59824;SDS011;45703;50.898;6.054;2024-01-10T10:13:07;19.60;;;9.70;;
59824;SDS011;45703;50.898;6.054;2024-01-10T10:15:36;21.95;;;9.98;;
59824;SDS011;45703;50.898;6.054;2024-01-10T10:18:01;23.23;;;9.40;;
59824;SDS011;45703;50.898;6.054;2024-01-10T10:20:27;21.65;;;9.50;;
59824;SDS011;45703;50.898;6.054;2024-01-10T10:23:02;20.05;;;9.45;;
59824;SDS011;45703;50.898;6.054;2024-01-10T10:25:32;15.20;;;8.65;;
59824;SDS011;45703;50.898;6.054;2024-01-10T10:28:03;21.60;;;9.32;;
59824;SDS011;45703;50.898;6.054;2024-01-10T10:30:32;18.85;;;9.18;;
59824;SDS011;45703;50.898;6.054;2024-01-10T10:32:58;17.67;;;8.45;;
59824;SDS011;45703;50.898;6.054;2024-01-10T10:35:24;18.83;;;8.55;;
59824;SDS011;45703;50.898;6.054;2024-01-10T10:37:50;18.92;;;9.10;;
59824;SDS011;45703;50.898;6.054;2024-01-10T10:40:17;20.38;;;9.15;;
59824;SDS011;45703;50.898;6.054;2024-01-10T10:42:54;22.98;;;10.35;;
59824;SDS011;45703;50.898;6.054;2024-01-10T10:45:23;20.80;;;9.82;;
59824;SDS011;45703;50.898;6.054;2024-01-10T10:47:54;19.15;;;9.90;;
59824;SDS011;45703;50.898;6.054;2024-01-10T10:50:22;20.90;;;9.10;;
59824;SDS011;45703;50.898;6.054;2024-01-10T10:52:48;14.73;;;7.53;;
59824;SDS011;45703;50.898;6.054;2024-01-10T10:55:15;17.85;;;9.40;;
59824;SDS011;45703;50.898;6.054;2024-01-10T10:57:44;19.35;;;10.07;;
59824;SDS011;45703;50.898;6.054;2024-01-10T11:00:12;18.90;;;9.60;;
59824;SDS011;45703;50.898;6.054;2024-01-10T11:02:42;15.85;;;8.32;;
59824;SDS011;45703;50.898;6.054;2024-01-10T11:05:11;21.90;;;9.90;;
59824;SDS011;45703;50.898;6.054;2024-01-10T11:07:40;19.98;;;8.80;;
59824;SDS011;45703;50.898;6.054;2024-01-10T11:10:10;19.85;;;9.27;;
59824;SDS011;45703;50.898;6.054;2024-01-10T11:15:38;20.10;;;9.43;;
59824;SDS011;45703;50.898;6.054;2024-01-10T11:18:15;20.90;;;10.45;;
59824;SDS011;45703;50.898;6.054;2024-01-10T11:23:40;18.52;;;9.25;;
59824;SDS011;45703;50.898;6.054;2024-01-10T11:26:13;22.17;;;9.35;;
59824;SDS011;45703;50.898;6.054;2024-01-10T11:28:40;23.38;;;9.82;;
59824;SDS011;45703;50.898;6.054;2024-01-10T11:31:06;20.88;;;8.40;;
59824;SDS011;45703;50.898;6.054;2024-01-10T11:33:34;20.92;;;9.73;;
59824;SDS011;45703;50.898;6.054;2024-01-10T11:36:09;20.13;;;10.02;;
59824;SDS011;45703;50.898;6.054;2024-01-10T11:41:34;19.92;;;9.38;;
59824;SDS011;45703;50.898;6.054;2024-01-10T11:46:35;17.85;;;8.93;;
59824;SDS011;45703;50.898;6.054;2024-01-10T11:49:06;17.88;;;8.32;;
59824;SDS011;45703;50.898;6.054;2024-01-10T11:51:32;21.83;;;10.07;;
59824;SDS011;45703;50.898;6.054;2024-01-10T11:53:57;20.15;;;8.93;;
59824;SDS011;45703;50.898;6.054;2024-01-10T11:56:23;19.77;;;8.95;;
59824;SDS011;45703;50.898;6.054;2024-01-10T11:59:03;17.10;;;8.52;;
59824;SDS011;45703;50.898;6.054;2024-01-10T12:01:38;18.83;;;8.85;;
59824;SDS011;45703;50.898;6.054;2024-01-10T12:04:05;22.73;;;10.18;;
59824;SDS011;45703;50.898;6.054;2024-01-10T12:06:31;16.02;;;8.63;;
59824;SDS011;45703;50.898;6.054;2024-01-10T12:08:57;19.77;;;9.25;;
59824;SDS011;45703;50.898;6.054;2024-01-10T12:11:23;15.32;;;8.68;;
59824;SDS011;45703;50.898;6.054;2024-01-10T12:13:48;20.70;;;10.35;;
59824;SDS011;45703;50.898;6.054;2024-01-10T12:16:14;21.08;;;9.30;;
59824;SDS011;45703;50.898;6.054;2024-01-10T12:18:40;20.73;;;10.27;;
59824;SDS011;45703;50.898;6.054;2024-01-10T12:21:07;24.05;;;10.85;;
59824;SDS011;45703;50.898;6.054;2024-01-10T12:23:37;21.25;;;10.52;;
59824;SDS011;45703;50.898;6.054;2024-01-10T12:26:04;19.17;;;10.02;;
59824;SDS011;45703;50.898;6.054;2024-01-10T12:28:33;21.05;;;9.80;;
59824;SDS011;45703;50.898;6.054;2024-01-10T12:30:59;21.52;;;10.18;;
59824;SDS011;45703;50.898;6.054;2024-01-10T12:33:57;21.90;;;11.55;;
59824;SDS011;45703;50.898;6.054;2024-01-10T12:36:24;19.85;;;9.75;;
59824;SDS011;45703;50.898;6.054;2024-01-10T12:38:49;19.40;;;10.48;;
59824;SDS011;45703;50.898;6.054;2024-01-10T12:41:15;20.20;;;9.90;;
59824;SDS011;45703;50.898;6.054;2024-01-10T12:43:51;21.70;;;10.65;;
59824;SDS011;45703;50.898;6.054;2024-01-10T12:46:25;20.95;;;10.50;;
59824;SDS011;45703;50.898;6.054;2024-01-10T12:51:26;24.52;;;10.75;;
59824;SDS011;45703;50.898;6.054;2024-01-10T12:53:54;21.15;;;10.38;;
59824;SDS011;45703;50.898;6.054;2024-01-10T12:56:21;23.02;;;10.98;;
59824;SDS011;45703;50.898;6.054;2024-01-10T12:58:46;22.52;;;11.13;;
59824;SDS011;45703;50.898;6.054;2024-01-10T13:01:12;22.95;;;11.05;;
59824;SDS011;45703;50.898;6.054;2024-01-10T13:03:42;22.27;;;11.15;;
59824;SDS011;45703;50.898;6.054;2024-01-10T13:06:08;20.80;;;10.25;;
59824;SDS011;45703;50.898;6.054;2024-01-10T13:08:34;20.52;;;9.60;;
59824;SDS011;45703;50.898;6.054;2024-01-10T13:11:00;22.17;;;10.10;;
59824;SDS011;45703;50.898;6.054;2024-01-10T13:13:25;22.30;;;10.38;;
59824;SDS011;45703;50.898;6.054;2024-01-10T13:15:51;19.95;;;10.15;;
59824;SDS011;45703;50.898;6.054;2024-01-10T13:18:16;18.42;;;10.02;;
59824;SDS011;45703;50.898;6.054;2024-01-10T13:20:43;22.50;;;10.88;;
59824;SDS011;45703;50.898;6.054;2024-01-10T13:23:09;21.10;;;10.77;;
59824;SDS011;45703;50.898;6.054;2024-01-10T13:25:35;22.10;;;9.50;;
59824;SDS011;45703;50.898;6.054;2024-01-10T13:28:02;20.02;;;10.00;;
59824;SDS011;45703;50.898;6.054;2024-01-10T13:30:28;22.83;;;9.77;;
59824;SDS011;45703;50.898;6.054;2024-01-10T13:32:53;18.75;;;9.15;;
59824;SDS011;45703;50.898;6.054;2024-01-10T13:35:19;25.38;;;10.38;;
59824;SDS011;45703;50.898;6.054;2024-01-10T13:37:44;25.88;;;10.38;;
59824;SDS011;45703;50.898;6.054;2024-01-10T13:40:13;22.08;;;10.30;;
59824;SDS011;45703;50.898;6.054;2024-01-10T13:42:39;21.15;;;10.50;;
59824;SDS011;45703;50.898;6.054;2024-01-10T13:45:05;25.25;;;11.82;;
59824;SDS011;45703;50.898;6.054;2024-01-10T13:47:31;26.75;;;11.32;;
59824;SDS011;45703;50.898;6.054;2024-01-10T13:50:00;21.58;;;9.70;;
59824;SDS011;45703;50.898;6.054;2024-01-10T13:52:25;20.30;;;10.07;;
59824;SDS011;45703;50.898;6.054;2024-01-10T13:54:51;23.30;;;11.00;;
59824;SDS011;45703;50.898;6.054;2024-01-10T13:57:17;20.17;;;10.50;;
59824;SDS011;45703;50.898;6.054;2024-01-10T13:59:43;19.88;;;10.40;;
59824;SDS011;45703;50.898;6.054;2024-01-10T14:02:08;20.67;;;11.02;;
59824;SDS011;45703;50.898;6.054;2024-01-10T14:04:35;22.83;;;10.70;;
59824;SDS011;45703;50.898;6.054;2024-01-10T14:07:00;21.92;;;10.80;;
59824;SDS011;45703;50.898;6.054;2024-01-10T14:09:25;21.10;;;10.88;;
59824;SDS011;45703;50.898;6.054;2024-01-10T14:11:51;22.20;;;11.30;;
59824;SDS011;45703;50.898;6.054;2024-01-10T14:14:17;22.48;;;10.20;;
59824;SDS011;45703;50.898;6.054;2024-01-10T14:16:43;20.23;;;11.77;;
59824;SDS011;45703;50.898;6.054;2024-01-10T14:19:08;22.40;;;10.60;;
59824;SDS011;45703;50.898;6.054;2024-01-10T14:21:34;23.92;;;11.35;;
59824;SDS011;45703;50.898;6.054;2024-01-10T14:23:59;28.55;;;11.07;;
59824;SDS011;45703;50.898;6.054;2024-01-10T14:26:24;23.20;;;10.90;;
59824;SDS011;45703;50.898;6.054;2024-01-10T14:28:51;20.48;;;9.95;;
59824;SDS011;45703;50.898;6.054;2024-01-10T14:31:20;22.15;;;11.80;;
59824;SDS011;45703;50.898;6.054;2024-01-10T14:33:46;20.88;;;11.13;;
59824;SDS011;45703;50.898;6.054;2024-01-10T14:36:11;19.70;;;9.00;;
59824;SDS011;45703;50.898;6.054;2024-01-10T14:38:38;24.67;;;11.40;;
59824;SDS011;45703;50.898;6.054;2024-01-10T14:41:04;19.73;;;10.32;;